sensor_id;sensor_type;location;lat;lon;timestamp;P1;durP1;ratioP1;P2;durP2;ratioP2
5171;SDS011;2605;49.770;9.868;2022-10-16T00:00:31;3.47;;;2.53;;
5171;SDS011;2605;49.770;9.868;2022-10-16T00:02:57;2.73;;;2.53;;
5171;SDS011;2605;49.770;9.868;2022-10-16T00:05:23;3.20;;;2.90;;
5171;SDS011;2605;49.770;9.868;2022-10-16T00:07:49;5.53;;;2.30;;
5171;SDS011;2605;49.770;9.868;2022-10-16T00:10:14;3.70;;;3.00;;
5171;SDS011;2605;49.770;9.868;2022-10-16T00:12:40;2.80;;;2.60;;
5171;SDS011;2605;49.770;9.868;2022-10-16T00:15:05;3.47;;;2.93;;
5171;SDS011;2605;49.770;9.868;2022-10-16T00:17:31;5.63;;;2.60;;
5171;SDS011;2605;49.770;9.868;2022-10-16T00:19:57;2.97;;;2.70;;
5171;SDS011;2605;49.770;9.868;2022-10-16T00:22:23;2.63;;;2.53;;
5171;SDS011;2605;49.770;9.868;2022-10-16T00:24:49;2.80;;;2.60;;
5171;SDS011;2605;49.770;9.868;2022-10-16T00:27:14;3.33;;;3.03;;
5171;SDS011;2605;49.770;9.868;2022-10-16T00:29:41;3.33;;;3.13;;
5171;SDS011;2605;49.770;9.868;2022-10-16T00:32:07;2.87;;;2.67;;
5171;SDS011;2605;49.770;9.868;2022-10-16T00:34:32;3.30;;;3.00;;
5171;SDS011;2605;49.770;9.868;2022-10-16T00:36:58;3.43;;;2.60;;
5171;SDS011;2605;49.770;9.868;2022-10-16T00:39:23;2.67;;;2.47;;
5171;SDS011;2605;49.770;9.868;2022-10-16T00:41:49;11.37;;;2.50;;
5171;SDS011;2605;49.770;9.868;2022-10-16T00:47:13;2.60;;;2.40;;
5171;SDS011;2605;49.770;9.868;2022-10-16T00:49:47;2.60;;;2.40;;
5171;SDS011;2605;49.770;9.868;2022-10-16T00:52:15;2.80;;;2.57;;
5171;SDS011;2605;49.770;9.868;2022-10-16T00:54:41;4.03;;;2.70;;
5171;SDS011;2605;49.770;9.868;2022-10-16T00:57:07;3.00;;;2.70;;
5171;SDS011;2605;49.770;9.868;2022-10-16T00:59:34;4.40;;;2.50;;
5171;SDS011;2605;49.770;9.868;2022-10-16T01:02:03;3.83;;;2.80;;
5171;SDS011;2605;49.770;9.868;2022-10-16T01:04:35;2.90;;;2.23;;
5171;SDS011;2605;49.770;9.868;2022-10-16T01:09:41;2.60;;;2.40;;
5171;SDS011;2605;49.770;9.868;2022-10-16T01:12:19;2.67;;;2.30;;
5171;SDS011;2605;49.770;9.868;2022-10-16T01:15:03;2.63;;;2.53;;
5171;SDS011;2605;49.770;9.868;2022-10-16T01:17:48;2.20;;;2.03;;
5171;SDS011;2605;49.770;9.868;2022-10-16T01:20:30;2.37;;;2.23;;
5171;SDS011;2605;49.770;9.868;2022-10-16T01:23:04;2.87;;;2.67;;
5171;SDS011;2605;49.770;9.868;2022-10-16T01:25:42;3.07;;;2.87;;
5171;SDS011;2605;49.770;9.868;2022-10-16T01:28:25;2.70;;;2.60;;
5171;SDS011;2605;49.770;9.868;2022-10-16T01:31:04;4.27;;;2.60;;
5171;SDS011;2605;49.770;9.868;2022-10-16T01:34:13;3.40;;;3.10;;
5171;SDS011;2605;49.770;9.868;2022-10-16T01:36:25;3.27;;;2.97;;
5171;SDS011;2605;49.770;9.868;2022-10-16T01:38:56;3.20;;;2.90;;
5171;SDS011;2605;49.770;9.868;2022-10-16T01:41:32;2.90;;;2.57;;
5171;SDS011;2605;49.770;9.868;2022-10-16T01:44:10;3.30;;;3.10;;
5171;SDS011;2605;49.770;9.868;2022-10-16T01:46:45;3.30;;;3.17;;
5171;SDS011;2605;49.770;9.868;2022-10-16T01:49:13;3.30;;;3.10;;
5171;SDS011;2605;49.770;9.868;2022-10-16T01:51:41;5.73;;;2.97;;
5171;SDS011;2605;49.770;9.868;2022-10-16T01:54:08;3.43;;;3.23;;
5171;SDS011;2605;49.770;9.868;2022-10-16T01:56:35;4.43;;;3.60;;
5171;SDS011;2605;49.770;9.868;2022-10-16T01:59:07;3.30;;;3.00;;
5171;SDS011;2605;49.770;9.868;2022-10-16T02:01:38;4.40;;;2.63;;
5171;SDS011;2605;49.770;9.868;2022-10-16T02:04:27;4.23;;;3.00;;
5171;SDS011;2605;49.770;9.868;2022-10-16T02:07:14;3.70;;;3.40;;
5171;SDS011;2605;49.770;9.868;2022-10-16T02:09:40;3.57;;;3.37;;
5171;SDS011;2605;49.770;9.868;2022-10-16T02:12:08;3.00;;;2.80;;
5171;SDS011;2605;49.770;9.868;2022-10-16T02:14:46;4.67;;;2.90;;
5171;SDS011;2605;49.770;9.868;2022-10-16T02:17:15;3.73;;;3.43;;
5171;SDS011;2605;49.770;9.868;2022-10-16T02:19:42;3.40;;;3.20;;
5171;SDS011;2605;49.770;9.868;2022-10-16T02:22:12;3.20;;;2.90;;
5171;SDS011;2605;49.770;9.868;2022-10-16T02:24:43;3.80;;;2.73;;
5171;SDS011;2605;49.770;9.868;2022-10-16T02:27:25;2.87;;;2.70;;
5171;SDS011;2605;49.770;9.868;2022-10-16T02:30:02;3.00;;;2.80;;
5171;SDS011;2605;49.770;9.868;2022-10-16T02:32:34;3.13;;;2.57;;
5171;SDS011;2605;49.770;9.868;2022-10-16T02:35:02;2.60;;;2.40;;
5171;SDS011;2605;49.770;9.868;2022-10-16T02:37:29;4.90;;;2.70;;
5171;SDS011;2605;49.770;9.868;2022-10-16T02:39:56;2.70;;;2.50;;
5171;SDS011;2605;49.770;9.868;2022-10-16T02:42:27;3.30;;;3.10;;
5171;SDS011;2605;49.770;9.868;2022-10-16T02:45:03;2.80;;;2.70;;
5171;SDS011;2605;49.770;9.868;2022-10-16T02:47:29;3.90;;;3.03;;
5171;SDS011;2605;49.770;9.868;2022-10-16T02:49:55;3.67;;;2.50;;
5171;SDS011;2605;49.770;9.868;2022-10-16T02:52:20;3.07;;;2.67;;
5171;SDS011;2605;49.770;9.868;2022-10-16T02:54:46;3.60;;;2.70;;
5171;SDS011;2605;49.770;9.868;2022-10-16T02:57:12;2.77;;;2.53;;
5171;SDS011;2605;49.770;9.868;2022-10-16T02:59:37;3.23;;;2.77;;
5171;SDS011;2605;49.770;9.868;2022-10-16T03:02:03;5.90;;;2.73;;
5171;SDS011;2605;49.770;9.868;2022-10-16T03:04:29;2.70;;;2.50;;
5171;SDS011;2605;49.770;9.868;2022-10-16T03:06:54;8.07;;;3.03;;
5171;SDS011;2605;49.770;9.868;2022-10-16T03:09:20;2.43;;;2.23;;
5171;SDS011;2605;49.770;9.868;2022-10-16T03:11:45;2.40;;;2.30;;
5171;SDS011;2605;49.770;9.868;2022-10-16T03:14:11;2.50;;;2.40;;
5171;SDS011;2605;49.770;9.868;2022-10-16T03:16:36;2.50;;;2.30;;
5171;SDS011;2605;49.770;9.868;2022-10-16T03:19:02;2.70;;;2.47;;
5171;SDS011;2605;49.770;9.868;2022-10-16T03:21:27;2.70;;;2.50;;
5171;SDS011;2605;49.770;9.868;2022-10-16T03:23:53;5.17;;;2.67;;
5171;SDS011;2605;49.770;9.868;2022-10-16T03:26:18;3.53;;;2.60;;
5171;SDS011;2605;49.770;9.868;2022-10-16T03:28:44;4.90;;;2.40;;
5171;SDS011;2605;49.770;9.868;2022-10-16T03:31:09;5.23;;;2.87;;
5171;SDS011;2605;49.770;9.868;2022-10-16T03:33:35;4.27;;;2.67;;
5171;SDS011;2605;49.770;9.868;2022-10-16T03:36:00;2.90;;;2.40;;
5171;SDS011;2605;49.770;9.868;2022-10-16T03:38:26;2.53;;;2.43;;
5171;SDS011;2605;49.770;9.868;2022-10-16T03:40:52;6.03;;;2.70;;
5171;SDS011;2605;49.770;9.868;2022-10-16T03:43:17;2.53;;;2.43;;
5171;SDS011;2605;49.770;9.868;2022-10-16T03:45:43;7.20;;;2.40;;
5171;SDS011;2605;49.770;9.868;2022-10-16T03:48:08;3.63;;;2.60;;
5171;SDS011;2605;49.770;9.868;2022-10-16T03:50:34;3.70;;;3.10;;
5171;SDS011;2605;49.770;9.868;2022-10-16T03:52:59;3.43;;;2.73;;
5171;SDS011;2605;49.770;9.868;2022-10-16T03:55:25;5.03;;;2.43;;
5171;SDS011;2605;49.770;9.868;2022-10-16T03:57:50;2.93;;;2.73;;
5171;SDS011;2605;49.770;9.868;2022-10-16T04:00:16;5.57;;;2.07;;
5171;SDS011;2605;49.770;9.868;2022-10-16T04:02:42;3.50;;;2.73;;
5171;SDS011;2605;49.770;9.868;2022-10-16T04:05:07;2.53;;;2.33;;
5171;SDS011;2605;49.770;9.868;2022-10-16T04:07:33;3.00;;;2.67;;
5171;SDS011;2605;49.770;9.868;2022-10-16T04:09:59;4.83;;;2.70;;
5171;SDS011;2605;49.770;9.868;2022-10-16T04:12:25;2.60;;;2.40;;
5171;SDS011;2605;49.770;9.868;2022-10-16T04:14:51;2.20;;;2.10;;
5171;SDS011;2605;49.770;9.868;2022-10-16T04:17:17;2.60;;;2.50;;
5171;SDS011;2605;49.770;9.868;2022-10-16T04:19:42;2.60;;;2.50;;
5171;SDS011;2605;49.770;9.868;2022-10-16T04:22:08;2.77;;;2.63;;
5171;SDS011;2605;49.770;9.868;2022-10-16T04:24:33;4.60;;;2.63;;
5171;SDS011;2605;49.770;9.868;2022-10-16T04:26:59;2.50;;;2.40;;
5171;SDS011;2605;49.770;9.868;2022-10-16T04:29:25;6.60;;;2.50;;
5171;SDS011;2605;49.770;9.868;2022-10-16T04:31:50;4.10;;;2.30;;
5171;SDS011;2605;49.770;9.868;2022-10-16T04:34:16;4.13;;;2.60;;
5171;SDS011;2605;49.770;9.868;2022-10-16T04:36:41;2.57;;;2.37;;
5171;SDS011;2605;49.770;9.868;2022-10-16T04:39:07;2.70;;;2.50;;
5171;SDS011;2605;49.770;9.868;2022-10-16T04:41:32;2.30;;;2.20;;
5171;SDS011;2605;49.770;9.868;2022-10-16T04:43:58;9.50;;;2.60;;
5171;SDS011;2605;49.770;9.868;2022-10-16T04:46:23;2.30;;;1.70;;
5171;SDS011;2605;49.770;9.868;2022-10-16T04:48:49;2.93;;;2.57;;
5171;SDS011;2605;49.770;9.868;2022-10-16T04:51:14;2.20;;;2.10;;
5171;SDS011;2605;49.770;9.868;2022-10-16T04:53:40;2.43;;;2.23;;
5171;SDS011;2605;49.770;9.868;2022-10-16T04:56:05;2.03;;;1.93;;
5171;SDS011;2605;49.770;9.868;2022-10-16T04:58:31;2.07;;;1.97;;
5171;SDS011;2605;49.770;9.868;2022-10-16T05:00:57;2.90;;;2.60;;
5171;SDS011;2605;49.770;9.868;2022-10-16T05:03:22;2.53;;;2.33;;
5171;SDS011;2605;49.770;9.868;2022-10-16T05:05:48;3.03;;;2.10;;
5171;SDS011;2605;49.770;9.868;2022-10-16T05:08:14;2.70;;;2.50;;
5171;SDS011;2605;49.770;9.868;2022-10-16T05:10:40;3.37;;;2.60;;
5171;SDS011;2605;49.770;9.868;2022-10-16T05:13:07;3.63;;;2.33;;
5171;SDS011;2605;49.770;9.868;2022-10-16T05:15:33;2.33;;;2.23;;
5171;SDS011;2605;49.770;9.868;2022-10-16T05:17:59;1.90;;;1.80;;
5171;SDS011;2605;49.770;9.868;2022-10-16T05:20:24;2.20;;;2.00;;
5171;SDS011;2605;49.770;9.868;2022-10-16T05:22:50;2.77;;;2.50;;
5171;SDS011;2605;49.770;9.868;2022-10-16T05:25:15;2.60;;;2.17;;
5171;SDS011;2605;49.770;9.868;2022-10-16T05:27:41;2.33;;;2.10;;
5171;SDS011;2605;49.770;9.868;2022-10-16T05:30:07;2.27;;;2.17;;
5171;SDS011;2605;49.770;9.868;2022-10-16T05:32:32;2.43;;;2.23;;
5171;SDS011;2605;49.770;9.868;2022-10-16T05:34:58;5.97;;;2.43;;
5171;SDS011;2605;49.770;9.868;2022-10-16T05:37:24;3.10;;;2.30;;
5171;SDS011;2605;49.770;9.868;2022-10-16T05:39:51;2.27;;;2.17;;
5171;SDS011;2605;49.770;9.868;2022-10-16T05:42:17;2.40;;;2.30;;
5171;SDS011;2605;49.770;9.868;2022-10-16T05:44:43;2.10;;;2.00;;
5171;SDS011;2605;49.770;9.868;2022-10-16T05:47:08;2.10;;;2.00;;
5171;SDS011;2605;49.770;9.868;2022-10-16T05:49:35;2.50;;;2.20;;
5171;SDS011;2605;49.770;9.868;2022-10-16T05:52:01;5.43;;;2.50;;
5171;SDS011;2605;49.770;9.868;2022-10-16T05:54:26;6.40;;;2.23;;
5171;SDS011;2605;49.770;9.868;2022-10-16T05:56:52;3.00;;;2.23;;
5171;SDS011;2605;49.770;9.868;2022-10-16T05:59:17;2.63;;;1.90;;
5171;SDS011;2605;49.770;9.868;2022-10-16T06:01:43;8.40;;;2.30;;
5171;SDS011;2605;49.770;9.868;2022-10-16T06:04:08;2.53;;;2.30;;
5171;SDS011;2605;49.770;9.868;2022-10-16T06:06:34;3.90;;;2.30;;
5171;SDS011;2605;49.770;9.868;2022-10-16T06:09:01;2.90;;;2.70;;
5171;SDS011;2605;49.770;9.868;2022-10-16T06:11:29;6.00;;;2.53;;
5171;SDS011;2605;49.770;9.868;2022-10-16T06:13:57;3.20;;;2.80;;
5171;SDS011;2605;49.770;9.868;2022-10-16T06:16:25;2.67;;;2.57;;
5171;SDS011;2605;49.770;9.868;2022-10-16T06:18:54;3.37;;;3.07;;
5171;SDS011;2605;49.770;9.868;2022-10-16T06:21:24;3.17;;;2.30;;
5171;SDS011;2605;49.770;9.868;2022-10-16T06:23:51;3.67;;;2.50;;
5171;SDS011;2605;49.770;9.868;2022-10-16T06:26:18;2.40;;;2.07;;
5171;SDS011;2605;49.770;9.868;2022-10-16T06:28:45;3.13;;;1.83;;
5171;SDS011;2605;49.770;9.868;2022-10-16T06:31:12;2.33;;;2.20;;
5171;SDS011;2605;49.770;9.868;2022-10-16T06:33:38;2.47;;;2.27;;
5171;SDS011;2605;49.770;9.868;2022-10-16T06:36:05;2.70;;;2.50;;
5171;SDS011;2605;49.770;9.868;2022-10-16T06:38:36;2.73;;;2.63;;
5171;SDS011;2605;49.770;9.868;2022-10-16T06:41:02;3.23;;;2.30;;
5171;SDS011;2605;49.770;9.868;2022-10-16T06:43:29;3.10;;;2.27;;
5171;SDS011;2605;49.770;9.868;2022-10-16T06:45:57;2.00;;;1.87;;
5171;SDS011;2605;49.770;9.868;2022-10-16T06:48:24;2.63;;;2.17;;
5171;SDS011;2605;49.770;9.868;2022-10-16T06:50:59;2.50;;;2.30;;
5171;SDS011;2605;49.770;9.868;2022-10-16T06:53:25;2.23;;;2.03;;
5171;SDS011;2605;49.770;9.868;2022-10-16T06:55:52;2.30;;;2.20;;
5171;SDS011;2605;49.770;9.868;2022-10-16T06:58:17;2.30;;;1.93;;
5171;SDS011;2605;49.770;9.868;2022-10-16T07:00:43;5.67;;;1.90;;
5171;SDS011;2605;49.770;9.868;2022-10-16T07:03:09;2.47;;;2.27;;
5171;SDS011;2605;49.770;9.868;2022-10-16T07:05:38;2.10;;;2.00;;
5171;SDS011;2605;49.770;9.868;2022-10-16T07:08:04;3.20;;;2.07;;
5171;SDS011;2605;49.770;9.868;2022-10-16T07:10:30;2.00;;;1.90;;
5171;SDS011;2605;49.770;9.868;2022-10-16T07:12:56;2.33;;;2.10;;
5171;SDS011;2605;49.770;9.868;2022-10-16T07:15:21;2.17;;;1.80;;
5171;SDS011;2605;49.770;9.868;2022-10-16T07:17:47;2.80;;;1.90;;
5171;SDS011;2605;49.770;9.868;2022-10-16T07:20:13;6.47;;;1.63;;
5171;SDS011;2605;49.770;9.868;2022-10-16T07:22:39;1.90;;;1.80;;
5171;SDS011;2605;49.770;9.868;2022-10-16T07:25:04;1.70;;;1.60;;
5171;SDS011;2605;49.770;9.868;2022-10-16T07:27:30;2.40;;;2.20;;
5171;SDS011;2605;49.770;9.868;2022-10-16T07:29:56;4.33;;;2.40;;
5171;SDS011;2605;49.770;9.868;2022-10-16T07:32:21;5.53;;;2.93;;
5171;SDS011;2605;49.770;9.868;2022-10-16T07:34:47;3.83;;;2.20;;
5171;SDS011;2605;49.770;9.868;2022-10-16T07:37:12;4.53;;;2.13;;
5171;SDS011;2605;49.770;9.868;2022-10-16T07:39:38;3.00;;;2.53;;
5171;SDS011;2605;49.770;9.868;2022-10-16T07:42:03;3.80;;;1.93;;
5171;SDS011;2605;49.770;9.868;2022-10-16T07:44:29;2.77;;;1.83;;
5171;SDS011;2605;49.770;9.868;2022-10-16T07:46:54;2.97;;;2.17;;
5171;SDS011;2605;49.770;9.868;2022-10-16T07:49:20;2.83;;;2.30;;
5171;SDS011;2605;49.770;9.868;2022-10-16T07:51:48;2.17;;;1.97;;
5171;SDS011;2605;49.770;9.868;2022-10-16T07:54:14;2.57;;;1.90;;
5171;SDS011;2605;49.770;9.868;2022-10-16T07:56:40;4.37;;;2.20;;
5171;SDS011;2605;49.770;9.868;2022-10-16T07:59:05;3.17;;;1.80;;
5171;SDS011;2605;49.770;9.868;2022-10-16T08:01:31;2.77;;;2.00;;
5171;SDS011;2605;49.770;9.868;2022-10-16T08:03:56;2.70;;;1.90;;
5171;SDS011;2605;49.770;9.868;2022-10-16T08:06:22;3.47;;;1.93;;
5171;SDS011;2605;49.770;9.868;2022-10-16T08:08:47;4.10;;;2.70;;
5171;SDS011;2605;49.770;9.868;2022-10-16T08:11:13;3.63;;;1.80;;
5171;SDS011;2605;49.770;9.868;2022-10-16T08:13:39;2.00;;;1.87;;
5171;SDS011;2605;49.770;9.868;2022-10-16T08:16:05;3.30;;;2.23;;
5171;SDS011;2605;49.770;9.868;2022-10-16T08:18:33;3.10;;;1.90;;
5171;SDS011;2605;49.770;9.868;2022-10-16T08:21:00;7.30;;;2.13;;
5171;SDS011;2605;49.770;9.868;2022-10-16T08:23:26;1.87;;;1.77;;
5171;SDS011;2605;49.770;9.868;2022-10-16T08:25:53;2.20;;;1.93;;
5171;SDS011;2605;49.770;9.868;2022-10-16T08:28:20;4.30;;;2.07;;
5171;SDS011;2605;49.770;9.868;2022-10-16T08:30:46;13.00;;;2.27;;
5171;SDS011;2605;49.770;9.868;2022-10-16T08:33:11;7.67;;;2.37;;
5171;SDS011;2605;49.770;9.868;2022-10-16T08:35:37;1.80;;;1.70;;
5171;SDS011;2605;49.770;9.868;2022-10-16T08:38:05;1.73;;;1.63;;
5171;SDS011;2605;49.770;9.868;2022-10-16T08:40:32;4.57;;;2.00;;
5171;SDS011;2605;49.770;9.868;2022-10-16T08:43:12;2.87;;;1.97;;
5171;SDS011;2605;49.770;9.868;2022-10-16T08:48:23;3.90;;;2.27;;
5171;SDS011;2605;49.770;9.868;2022-10-16T08:50:57;2.17;;;1.37;;
5171;SDS011;2605;49.770;9.868;2022-10-16T08:53:27;2.70;;;1.43;;
5171;SDS011;2605;49.770;9.868;2022-10-16T08:56:17;5.50;;;2.00;;
5171;SDS011;2605;49.770;9.868;2022-10-16T08:58:43;6.30;;;1.87;;
5171;SDS011;2605;49.770;9.868;2022-10-16T09:01:15;2.73;;;1.70;;
5171;SDS011;2605;49.770;9.868;2022-10-16T09:18:00;3.97;;;1.53;;
5171;SDS011;2605;49.770;9.868;2022-10-16T09:25:46;1.40;;;1.30;;
5171;SDS011;2605;49.770;9.868;2022-10-16T09:28:13;1.20;;;1.17;;
5171;SDS011;2605;49.770;9.868;2022-10-16T09:30:40;3.40;;;1.70;;
5171;SDS011;2605;49.770;9.868;2022-10-16T09:33:06;3.10;;;1.90;;
5171;SDS011;2605;49.770;9.868;2022-10-16T09:35:40;5.07;;;2.23;;
5171;SDS011;2605;49.770;9.868;2022-10-16T09:38:25;2.03;;;1.47;;
5171;SDS011;2605;49.770;9.868;2022-10-16T09:40:56;4.70;;;1.63;;
5171;SDS011;2605;49.770;9.868;2022-10-16T09:43:24;6.00;;;1.93;;
5171;SDS011;2605;49.770;9.868;2022-10-16T09:46:21;3.43;;;2.10;;
5171;SDS011;2605;49.770;9.868;2022-10-16T09:48:58;2.43;;;1.83;;
5171;SDS011;2605;49.770;9.868;2022-10-16T09:54:21;2.43;;;1.50;;
5171;SDS011;2605;49.770;9.868;2022-10-16T09:56:46;1.63;;;1.53;;
5171;SDS011;2605;49.770;9.868;2022-10-16T09:59:19;2.23;;;1.60;;
5171;SDS011;2605;49.770;9.868;2022-10-16T10:01:50;1.73;;;1.63;;
5171;SDS011;2605;49.770;9.868;2022-10-16T10:04:17;2.90;;;1.70;;
5171;SDS011;2605;49.770;9.868;2022-10-16T10:06:45;2.17;;;1.40;;
5171;SDS011;2605;49.770;9.868;2022-10-16T10:09:16;2.17;;;1.47;;
5171;SDS011;2605;49.770;9.868;2022-10-16T10:14:26;2.47;;;1.50;;
5171;SDS011;2605;49.770;9.868;2022-10-16T10:19:36;3.63;;;1.87;;
5171;SDS011;2605;49.770;9.868;2022-10-16T10:22:17;2.00;;;1.90;;
5171;SDS011;2605;49.770;9.868;2022-10-16T10:25:52;4.37;;;1.73;;
5171;SDS011;2605;49.770;9.868;2022-10-16T10:31:17;8.50;;;4.40;;
5171;SDS011;2605;49.770;9.868;2022-10-16T10:34:27;6.30;;;5.80;;
5171;SDS011;2605;49.770;9.868;2022-10-16T10:36:40;7.57;;;6.93;;
5171;SDS011;2605;49.770;9.868;2022-10-16T10:39:27;8.60;;;8.00;;
5171;SDS011;2605;49.770;9.868;2022-10-16T10:47:46;8.40;;;7.80;;
5171;SDS011;2605;49.770;9.868;2022-10-16T10:50:34;7.77;;;7.37;;
5171;SDS011;2605;49.770;9.868;2022-10-16T10:58:57;6.77;;;6.27;;
5171;SDS011;2605;49.770;9.868;2022-10-16T11:07:17;4.27;;;4.00;;
5171;SDS011;2605;49.770;9.868;2022-10-16T11:09:56;4.97;;;4.50;;
5171;SDS011;2605;49.770;9.868;2022-10-16T11:12:30;4.30;;;4.00;;
5171;SDS011;2605;49.770;9.868;2022-10-16T11:15:02;4.40;;;4.13;;
5171;SDS011;2605;49.770;9.868;2022-10-16T11:17:58;4.63;;;4.30;;
5171;SDS011;2605;49.770;9.868;2022-10-16T11:20:39;6.53;;;4.10;;
5171;SDS011;2605;49.770;9.868;2022-10-16T11:23:11;4.20;;;3.63;;
5171;SDS011;2605;49.770;9.868;2022-10-16T11:25:46;3.67;;;3.40;;
5171;SDS011;2605;49.770;9.868;2022-10-16T11:28:14;3.73;;;3.53;;
5171;SDS011;2605;49.770;9.868;2022-10-16T11:30:49;3.73;;;3.53;;
5171;SDS011;2605;49.770;9.868;2022-10-16T11:35:48;3.40;;;3.10;;
5171;SDS011;2605;49.770;9.868;2022-10-16T11:38:35;3.60;;;3.30;;
5171;SDS011;2605;49.770;9.868;2022-10-16T11:49:30;4.53;;;3.73;;
5171;SDS011;2605;49.770;9.868;2022-10-16T11:57:19;3.33;;;3.03;;
5171;SDS011;2605;49.770;9.868;2022-10-16T12:02:43;4.37;;;3.60;;
5171;SDS011;2605;49.770;9.868;2022-10-16T12:05:14;2.70;;;2.30;;
5171;SDS011;2605;49.770;9.868;2022-10-16T12:07:54;3.87;;;2.20;;
5171;SDS011;2605;49.770;9.868;2022-10-16T12:10:22;5.10;;;2.77;;
5171;SDS011;2605;49.770;9.868;2022-10-16T12:12:50;2.07;;;1.97;;
5171;SDS011;2605;49.770;9.868;2022-10-16T12:17:45;2.30;;;1.73;;
5171;SDS011;2605;49.770;9.868;2022-10-16T12:23:01;3.33;;;2.50;;
5171;SDS011;2605;49.770;9.868;2022-10-16T12:25:29;3.17;;;2.23;;
5171;SDS011;2605;49.770;9.868;2022-10-16T12:30:35;3.20;;;2.20;;
5171;SDS011;2605;49.770;9.868;2022-10-16T12:33:05;2.40;;;2.30;;
5171;SDS011;2605;49.770;9.868;2022-10-16T12:35:54;2.30;;;2.10;;
5171;SDS011;2605;49.770;9.868;2022-10-16T12:38:25;2.23;;;2.03;;
5171;SDS011;2605;49.770;9.868;2022-10-16T12:40:56;3.43;;;1.90;;
5171;SDS011;2605;49.770;9.868;2022-10-16T12:48:30;2.80;;;2.40;;
5171;SDS011;2605;49.770;9.868;2022-10-16T12:50:56;1.93;;;1.83;;
5171;SDS011;2605;49.770;9.868;2022-10-16T12:53:25;5.17;;;2.00;;
5171;SDS011;2605;49.770;9.868;2022-10-16T12:55:57;1.90;;;1.67;;
5171;SDS011;2605;49.770;9.868;2022-10-16T13:01:23;1.97;;;1.87;;
5171;SDS011;2605;49.770;9.868;2022-10-16T13:06:49;3.60;;;2.43;;
5171;SDS011;2605;49.770;9.868;2022-10-16T13:12:05;4.20;;;3.03;;
5171;SDS011;2605;49.770;9.868;2022-10-16T13:14:54;3.20;;;2.13;;
5171;SDS011;2605;49.770;9.868;2022-10-16T13:17:49;2.60;;;2.13;;
5171;SDS011;2605;49.770;9.868;2022-10-16T13:20:25;1.93;;;1.80;;
5171;SDS011;2605;49.770;9.868;2022-10-16T13:25:59;1.97;;;1.60;;
5171;SDS011;2605;49.770;9.868;2022-10-16T13:28:35;1.93;;;1.67;;
5171;SDS011;2605;49.770;9.868;2022-10-16T13:31:03;2.83;;;1.70;;
5171;SDS011;2605;49.770;9.868;2022-10-16T13:36:03;1.67;;;1.57;;
5171;SDS011;2605;49.770;9.868;2022-10-16T13:38:30;2.40;;;1.70;;
5171;SDS011;2605;49.770;9.868;2022-10-16T13:40:58;1.93;;;1.83;;
5171;SDS011;2605;49.770;9.868;2022-10-16T13:43:36;2.13;;;1.70;;
5171;SDS011;2605;49.770;9.868;2022-10-16T13:46:06;2.63;;;1.80;;
5171;SDS011;2605;49.770;9.868;2022-10-16T13:48:37;1.63;;;1.53;;
5171;SDS011;2605;49.770;9.868;2022-10-16T13:53:32;2.57;;;2.00;;
5171;SDS011;2605;49.770;9.868;2022-10-16T13:56:06;2.00;;;1.80;;
5171;SDS011;2605;49.770;9.868;2022-10-16T13:58:35;3.20;;;1.80;;
5171;SDS011;2605;49.770;9.868;2022-10-16T14:03:49;5.00;;;1.80;;
5171;SDS011;2605;49.770;9.868;2022-10-16T14:06:17;4.13;;;1.73;;
5171;SDS011;2605;49.770;9.868;2022-10-16T14:08:55;4.03;;;2.20;;
5171;SDS011;2605;49.770;9.868;2022-10-16T14:11:29;3.83;;;1.70;;
5171;SDS011;2605;49.770;9.868;2022-10-16T14:13:55;4.50;;;1.50;;
5171;SDS011;2605;49.770;9.868;2022-10-16T14:16:22;2.93;;;1.60;;
5171;SDS011;2605;49.770;9.868;2022-10-16T14:21:25;2.93;;;1.60;;
5171;SDS011;2605;49.770;9.868;2022-10-16T14:23:52;5.63;;;1.83;;
5171;SDS011;2605;49.770;9.868;2022-10-16T14:26:19;4.07;;;2.00;;
5171;SDS011;2605;49.770;9.868;2022-10-16T14:28:47;2.70;;;2.00;;
5171;SDS011;2605;49.770;9.868;2022-10-16T14:31:30;7.47;;;1.97;;
5171;SDS011;2605;49.770;9.868;2022-10-16T14:33:58;9.67;;;2.97;;
5171;SDS011;2605;49.770;9.868;2022-10-16T14:36:25;12.60;;;1.90;;
5171;SDS011;2605;49.770;9.868;2022-10-16T14:41:32;7.23;;;2.00;;
5171;SDS011;2605;49.770;9.868;2022-10-16T14:44:09;1.53;;;1.43;;
5171;SDS011;2605;49.770;9.868;2022-10-16T14:46:37;3.10;;;1.70;;
5171;SDS011;2605;49.770;9.868;2022-10-16T14:51:41;11.20;;;2.23;;
5171;SDS011;2605;49.770;9.868;2022-10-16T14:54:10;5.23;;;2.13;;
5171;SDS011;2605;49.770;9.868;2022-10-16T14:56:50;5.17;;;2.20;;
5171;SDS011;2605;49.770;9.868;2022-10-16T15:01:58;7.93;;;2.43;;
5171;SDS011;2605;49.770;9.868;2022-10-16T15:04:24;4.30;;;1.93;;
5171;SDS011;2605;49.770;9.868;2022-10-16T15:06:50;1.50;;;1.40;;
5171;SDS011;2605;49.770;9.868;2022-10-16T15:09:15;1.90;;;1.80;;
5171;SDS011;2605;49.770;9.868;2022-10-16T15:11:41;3.20;;;1.50;;
5171;SDS011;2605;49.770;9.868;2022-10-16T15:14:16;1.93;;;1.83;;
5171;SDS011;2605;49.770;9.868;2022-10-16T15:16:41;10.90;;;2.17;;
5171;SDS011;2605;49.770;9.868;2022-10-16T15:19:07;15.30;;;2.60;;
5171;SDS011;2605;49.770;9.868;2022-10-16T15:21:32;6.90;;;2.20;;
5171;SDS011;2605;49.770;9.868;2022-10-16T15:23:58;5.23;;;2.47;;
5171;SDS011;2605;49.770;9.868;2022-10-16T15:26:26;7.33;;;2.83;;
5171;SDS011;2605;49.770;9.868;2022-10-16T15:28:52;9.00;;;3.20;;
5171;SDS011;2605;49.770;9.868;2022-10-16T15:31:18;8.27;;;3.30;;
5171;SDS011;2605;49.770;9.868;2022-10-16T15:33:46;4.40;;;2.63;;
5171;SDS011;2605;49.770;9.868;2022-10-16T15:36:24;2.23;;;2.07;;
5171;SDS011;2605;49.770;9.868;2022-10-16T15:38:50;7.30;;;2.63;;
5171;SDS011;2605;49.770;9.868;2022-10-16T15:41:16;5.07;;;3.03;;
5171;SDS011;2605;49.770;9.868;2022-10-16T15:43:41;6.20;;;3.00;;
5171;SDS011;2605;49.770;9.868;2022-10-16T15:46:09;8.23;;;2.57;;
5171;SDS011;2605;49.770;9.868;2022-10-16T15:48:39;9.10;;;2.87;;
5171;SDS011;2605;49.770;9.868;2022-10-16T15:51:05;2.43;;;2.13;;
5171;SDS011;2605;49.770;9.868;2022-10-16T15:53:31;3.40;;;2.60;;
5171;SDS011;2605;49.770;9.868;2022-10-16T15:55:58;6.53;;;2.80;;
5171;SDS011;2605;49.770;9.868;2022-10-16T15:58:29;5.37;;;3.03;;
5171;SDS011;2605;49.770;9.868;2022-10-16T16:00:58;8.33;;;2.43;;
5171;SDS011;2605;49.770;9.868;2022-10-16T16:03:28;2.23;;;2.00;;
5171;SDS011;2605;49.770;9.868;2022-10-16T16:05:58;3.00;;;2.67;;
5171;SDS011;2605;49.770;9.868;2022-10-16T16:08:28;3.67;;;2.10;;
5171;SDS011;2605;49.770;9.868;2022-10-16T16:11:00;2.60;;;2.40;;
5171;SDS011;2605;49.770;9.868;2022-10-16T16:13:28;3.37;;;2.63;;
5171;SDS011;2605;49.770;9.868;2022-10-16T16:15:54;6.30;;;2.80;;
5171;SDS011;2605;49.770;9.868;2022-10-16T16:18:19;4.93;;;2.53;;
5171;SDS011;2605;49.770;9.868;2022-10-16T16:20:45;3.63;;;2.87;;
5171;SDS011;2605;49.770;9.868;2022-10-16T16:23:11;3.70;;;2.60;;
5171;SDS011;2605;49.770;9.868;2022-10-16T16:25:37;2.70;;;2.33;;
5171;SDS011;2605;49.770;9.868;2022-10-16T16:28:02;6.03;;;2.73;;
5171;SDS011;2605;49.770;9.868;2022-10-16T16:30:28;5.40;;;2.30;;
5171;SDS011;2605;49.770;9.868;2022-10-16T16:32:53;3.17;;;2.73;;
5171;SDS011;2605;49.770;9.868;2022-10-16T16:35:19;7.40;;;3.13;;
5171;SDS011;2605;49.770;9.868;2022-10-16T16:37:44;2.40;;;2.30;;
5171;SDS011;2605;49.770;9.868;2022-10-16T16:40:12;6.00;;;3.20;;
5171;SDS011;2605;49.770;9.868;2022-10-16T16:42:37;6.07;;;4.20;;
5171;SDS011;2605;49.770;9.868;2022-10-16T16:45:03;2.40;;;2.20;;
5171;SDS011;2605;49.770;9.868;2022-10-16T16:47:29;5.63;;;2.77;;
5171;SDS011;2605;49.770;9.868;2022-10-16T16:49:54;3.07;;;2.77;;
5171;SDS011;2605;49.770;9.868;2022-10-16T16:52:20;9.10;;;2.50;;
5171;SDS011;2605;49.770;9.868;2022-10-16T16:54:46;2.73;;;2.53;;
5171;SDS011;2605;49.770;9.868;2022-10-16T16:57:16;6.13;;;2.50;;
5171;SDS011;2605;49.770;9.868;2022-10-16T16:59:43;3.10;;;2.60;;
5171;SDS011;2605;49.770;9.868;2022-10-16T17:02:08;4.20;;;2.33;;
5171;SDS011;2605;49.770;9.868;2022-10-16T17:04:34;7.57;;;6.07;;
5171;SDS011;2605;49.770;9.868;2022-10-16T17:07:00;7.30;;;6.77;;
5171;SDS011;2605;49.770;9.868;2022-10-16T17:09:25;3.90;;;2.20;;
5171;SDS011;2605;49.770;9.868;2022-10-16T17:11:54;3.13;;;2.83;;
5171;SDS011;2605;49.770;9.868;2022-10-16T17:14:19;10.40;;;9.60;;
5171;SDS011;2605;49.770;9.868;2022-10-16T17:16:45;7.43;;;2.70;;
5171;SDS011;2605;49.770;9.868;2022-10-16T17:19:13;8.07;;;7.67;;
5171;SDS011;2605;49.770;9.868;2022-10-16T17:21:41;4.80;;;3.67;;
5171;SDS011;2605;49.770;9.868;2022-10-16T17:24:06;9.77;;;9.17;;